createdAt,value
2017-12-13T00:00:49.699Z,1002.41
2017-12-13T00:01:49.710Z,1002.45
2017-12-13T00:02:49.725Z,1002.42
2017-12-13T00:03:49.731Z,1002.5
2017-12-13T00:04:49.745Z,1002.51
2017-12-13T00:05:49.756Z,1002.51
2017-12-13T00:06:49.766Z,1002.49
2017-12-13T00:07:49.777Z,1002.53
2017-12-13T00:08:49.788Z,1002.55
2017-12-13T00:09:49.800Z,1002.55
2017-12-13T00:10:49.816Z,1002.56
2017-12-13T00:11:49.824Z,1002.58
2017-12-13T00:12:49.834Z,1002.54
2017-12-13T00:13:49.847Z,1002.56
2017-12-13T00:14:49.859Z,1002.58
2017-12-13T00:15:49.867Z,1002.61
2017-12-13T00:16:49.880Z,1002.59
2017-12-13T00:17:49.890Z,1002.6
2017-12-13T00:18:49.902Z,1002.58
2017-12-13T00:19:49.911Z,1002.62
2017-12-13T00:20:49.923Z,1002.6
2017-12-13T00:21:49.935Z,1002.62
2017-12-13T00:22:49.947Z,1002.57
2017-12-13T00:23:49.958Z,1002.59
2017-12-13T00:24:49.968Z,1002.58
2017-12-13T00:25:49.982Z,1002.56
2017-12-13T00:26:49.990Z,1002.59
2017-12-13T00:27:50.002Z,1002.58
2017-12-13T00:28:50.014Z,1002.61
2017-12-13T00:29:50.024Z,1002.58
2017-12-13T00:30:50.037Z,1002.61
2017-12-13T00:31:50.047Z,1002.64
2017-12-13T00:32:50.060Z,1002.63
2017-12-13T00:33:50.071Z,1002.62
2017-12-13T00:34:50.080Z,1002.63
2017-12-13T00:35:50.092Z,1002.65
2017-12-13T00:36:50.103Z,1002.68
2017-12-13T00:37:50.116Z,1002.65
2017-12-13T00:38:50.125Z,1002.68
2017-12-13T00:39:50.137Z,1002.65
2017-12-13T00:40:50.146Z,1002.66
2017-12-13T00:41:50.160Z,1002.67
2017-12-13T00:42:50.171Z,1002.66
2017-12-13T00:43:50.181Z,1002.7
2017-12-13T00:44:50.194Z,1002.72
2017-12-13T00:45:50.204Z,1002.7
2017-12-13T00:46:50.214Z,1002.73
2017-12-13T00:47:50.226Z,1002.68
2017-12-13T00:48:50.237Z,1002.68
2017-12-13T00:49:50.248Z,1002.73
2017-12-13T00:50:50.259Z,1002.69
2017-12-13T00:51:50.270Z,1002.7
2017-12-13T00:52:50.281Z,1002.73
2017-12-13T00:53:50.292Z,1002.75
2017-12-13T00:54:50.308Z,1002.74
2017-12-13T00:55:50.315Z,1002.75
2017-12-13T00:56:50.326Z,1002.76
2017-12-13T00:57:50.338Z,1002.76
2017-12-13T00:58:50.351Z,1002.79
2017-12-13T00:59:50.359Z,1002.76
2017-12-13T01:00:50.370Z,1002.74
2017-12-13T01:01:50.381Z,1002.76
2017-12-13T01:02:50.397Z,1002.78
2017-12-13T01:03:50.414Z,1002.81
2017-12-13T01:04:50.426Z,1002.81
2017-12-13T01:05:50.438Z,1002.8
2017-12-13T01:06:50.449Z,1002.83
2017-12-13T01:07:50.458Z,1002.81
2017-12-13T01:08:50.473Z,1002.81
2017-12-13T01:09:50.480Z,1002.84
2017-12-13T01:10:50.491Z,1002.83
2017-12-13T01:11:50.502Z,1002.84
2017-12-13T01:12:50.515Z,1002.85
2017-12-13T01:13:50.526Z,1002.83
2017-12-13T01:14:50.535Z,1002.84
2017-12-13T01:15:50.547Z,1002.81
2017-12-13T01:16:50.560Z,1002.84
2017-12-13T01:17:50.570Z,1002.86
2017-12-13T01:18:50.580Z,1002.83
2017-12-13T01:19:50.593Z,1002.91
2017-12-13T01:20:50.602Z,1002.92
2017-12-13T01:21:50.613Z,1002.9
2017-12-13T01:22:50.626Z,1002.93
2017-12-13T01:23:50.685Z,1002.96
2017-12-13T01:24:50.648Z,1002.96
2017-12-13T01:25:50.657Z,1002.97
2017-12-13T01:26:50.669Z,1002.96
2017-12-13T01:27:50.690Z,1002.92
2017-12-13T01:28:50.693Z,1002.98
2017-12-13T01:29:50.702Z,1002.94
2017-12-13T01:30:50.715Z,1002.92
2017-12-13T01:31:50.724Z,1002.95
2017-12-13T01:32:50.735Z,1002.96
2017-12-13T01:33:50.798Z,1002.92
2017-12-13T01:34:50.757Z,1002.9
2017-12-13T01:35:50.769Z,1002.92
2017-12-13T01:36:50.783Z,1002.93
2017-12-13T01:37:50.789Z,1002.88
2017-12-13T01:39:50.811Z,1002.88
2017-12-13T01:40:50.823Z,1002.89
2017-12-13T01:41:50.833Z,1002.9
2017-12-13T01:42:50.845Z,1002.93
2017-12-13T01:43:50.853Z,1002.92
2017-12-13T01:44:50.916Z,1002.9
2017-12-13T01:45:50.878Z,1002.9
2017-12-13T01:46:50.889Z,1002.95
2017-12-13T01:47:50.900Z,1002.93
2017-12-13T01:48:50.909Z,1002.95
2017-12-13T01:49:50.971Z,1002.93
2017-12-13T01:50:50.933Z,1002.92
2017-12-13T01:51:50.944Z,1002.92
2017-12-13T01:52:50.953Z,1002.86
2017-12-13T01:53:50.964Z,1002.9
2017-12-13T01:54:51.026Z,1002.92
2017-12-13T01:55:50.985Z,1002.89
2017-12-13T01:56:50.998Z,1002.89
2017-12-13T01:57:51.008Z,1002.88
2017-12-13T01:58:51.017Z,1002.88
2017-12-13T01:59:51.028Z,1002.92
2017-12-13T02:00:51.040Z,1002.88
2017-12-13T02:01:51.051Z,1002.89
2017-12-13T02:02:51.063Z,1002.86
2017-12-13T02:03:51.073Z,1002.92
2017-12-13T02:04:51.084Z,1002.89
2017-12-13T02:05:51.092Z,1002.91
2017-12-13T02:06:51.105Z,1002.87
2017-12-13T02:07:51.115Z,1002.9
2017-12-13T02:08:51.128Z,1002.9
2017-12-13T02:09:51.307Z,1002.88
2017-12-13T02:10:51.148Z,1002.81
2017-12-13T02:11:51.159Z,1002.81
2017-12-13T02:12:51.169Z,1002.83
2017-12-13T02:13:51.185Z,1002.83
2017-12-13T02:14:51.244Z,1002.83
2017-12-13T02:15:51.202Z,1002.8
2017-12-13T02:16:51.221Z,1002.82
2017-12-13T02:17:51.226Z,1002.82
2017-12-13T02:18:51.234Z,1002.82
2017-12-13T02:19:51.294Z,1002.81
2017-12-13T02:20:51.256Z,1002.81
2017-12-13T02:21:51.267Z,1002.81
2017-12-13T02:22:51.277Z,1002.81
2017-12-13T02:23:51.287Z,1002.81
2017-12-13T02:24:51.299Z,1002.81
2017-12-13T02:25:51.313Z,1002.79
2017-12-13T02:26:51.321Z,1002.75
2017-12-13T02:27:51.332Z,1002.75
2017-12-13T02:28:51.344Z,1002.74
2017-12-13T02:29:51.354Z,1002.77
2017-12-13T02:30:51.366Z,1002.77
2017-12-13T02:31:51.374Z,1002.78
2017-12-13T02:32:51.385Z,1002.77
2017-12-13T02:33:51.397Z,1002.75
2017-12-13T02:34:51.407Z,1002.77
2017-12-13T02:35:51.418Z,1002.76
2017-12-13T02:36:51.432Z,1002.73
2017-12-13T02:37:51.442Z,1002.77
2017-12-13T02:38:51.450Z,1002.79
2017-12-13T02:39:51.462Z,1002.75
2017-12-13T02:40:51.472Z,1002.78
2017-12-13T02:41:51.483Z,1002.79
2017-12-13T02:42:51.493Z,1002.75
2017-12-13T02:43:51.503Z,1002.82
2017-12-13T02:44:51.516Z,1002.77
2017-12-13T02:45:51.525Z,1002.8
2017-12-13T02:46:51.537Z,1002.78
2017-12-13T02:47:51.547Z,1002.77
2017-12-13T02:48:51.559Z,1002.81
2017-12-13T02:49:51.567Z,1002.82
2017-12-13T02:50:51.579Z,1002.79
2017-12-13T02:51:51.593Z,1002.79
2017-12-13T02:52:51.602Z,1002.79
2017-12-13T02:53:51.616Z,1002.8
2017-12-13T02:54:51.626Z,1002.78
2017-12-13T02:55:51.635Z,1002.76
2017-12-13T02:56:51.645Z,1002.76
2017-12-13T02:57:51.656Z,1002.75
2017-12-13T02:58:51.667Z,1002.79
2017-12-13T02:59:51.678Z,1002.82
2017-12-13T03:00:51.691Z,1002.78
2017-12-13T03:01:51.700Z,1002.82
2017-12-13T03:02:51.712Z,1002.81
2017-12-13T03:03:51.720Z,1002.8
2017-12-13T03:04:51.730Z,1002.81
2017-12-13T03:05:51.742Z,1002.8
2017-12-13T03:06:51.752Z,1002.84
2017-12-13T03:07:51.763Z,1002.76
2017-12-13T03:08:51.774Z,1002.8
2017-12-13T03:09:51.785Z,1002.86
2017-12-13T03:10:51.796Z,1002.84
2017-12-13T03:11:51.810Z,1002.86
2017-12-13T03:12:51.819Z,1002.85
2017-12-13T03:13:51.827Z,1002.82
2017-12-13T03:14:51.837Z,1002.89
2017-12-13T03:15:51.849Z,1002.85
2017-12-13T03:16:51.862Z,1002.81
2017-12-13T03:17:51.872Z,1002.86
2017-12-13T03:18:51.881Z,1002.83
2017-12-13T03:19:51.893Z,1002.84
2017-12-13T03:20:51.904Z,1002.83
2017-12-13T03:21:51.915Z,1002.87
2017-12-13T03:22:51.924Z,1002.79
2017-12-13T03:23:51.935Z,1002.87
2017-12-13T03:24:51.949Z,1002.83
2017-12-13T03:25:51.957Z,1002.77
2017-12-13T03:26:51.974Z,1002.78
2017-12-13T03:27:51.978Z,1002.8
2017-12-13T03:28:51.990Z,1002.78
2017-12-13T03:29:52.001Z,1002.76
2017-12-13T03:30:52.011Z,1002.76
2017-12-13T03:31:52.022Z,1002.76
2017-12-13T03:32:52.033Z,1002.75
2017-12-13T03:33:52.046Z,1002.74
2017-12-13T03:34:52.057Z,1002.74
2017-12-13T03:35:52.063Z,1002.79
2017-12-13T03:36:52.076Z,1002.71
2017-12-13T03:37:52.086Z,1002.75
2017-12-13T03:38:52.097Z,1002.74
2017-12-13T03:39:52.111Z,1002.79
2017-12-13T03:40:52.118Z,1002.73
2017-12-13T03:41:52.128Z,1002.76
2017-12-13T03:42:52.139Z,1002.72
2017-12-13T03:43:52.150Z,1002.69
2017-12-13T03:44:52.165Z,1002.7
2017-12-13T03:45:52.172Z,1002.73
2017-12-13T03:46:52.181Z,1002.71
2017-12-13T03:47:52.192Z,1002.67
2017-12-13T03:48:52.204Z,1002.66
2017-12-13T03:49:52.215Z,1002.63
2017-12-13T03:50:52.226Z,1002.62
2017-12-13T03:51:52.244Z,1002.61
2017-12-13T03:52:52.246Z,1002.62
2017-12-13T03:53:52.260Z,1002.67
2017-12-13T03:54:52.268Z,1002.64
2017-12-13T03:55:52.278Z,1002.63
2017-12-13T03:56:52.289Z,1002.71
2017-12-13T03:57:52.299Z,1002.71
2017-12-13T03:58:52.309Z,1002.68
2017-12-13T03:59:52.320Z,1002.71
2017-12-13T04:00:52.331Z,1002.66
2017-12-13T04:01:52.343Z,1002.69
2017-12-13T04:02:52.395Z,1002.67
2017-12-13T04:03:52.366Z,1002.65
2017-12-13T04:04:52.374Z,1002.67
2017-12-13T04:05:52.386Z,1002.64
2017-12-13T04:06:52.396Z,1002.6
2017-12-13T04:07:52.406Z,1002.57
2017-12-13T04:08:52.418Z,1002.6
2017-12-13T04:09:52.428Z,1002.6
2017-12-13T04:10:52.442Z,1002.63
2017-12-13T04:11:52.448Z,1002.62
2017-12-13T04:12:52.482Z,1002.65
2017-12-13T04:13:52.472Z,1002.67
2017-12-13T04:14:52.480Z,1002.68
2017-12-13T04:15:52.493Z,1002.64
2017-12-13T04:16:52.503Z,1002.66
2017-12-13T04:17:52.513Z,1002.66
2017-12-13T04:18:52.531Z,1002.66
2017-12-13T04:19:52.535Z,1002.63
2017-12-13T04:20:52.545Z,1002.64
2017-12-13T04:21:52.556Z,1002.61
2017-12-13T04:22:52.567Z,1002.64
2017-12-13T04:23:52.580Z,1002.67
2017-12-13T04:24:52.590Z,1002.63
2017-12-13T04:25:52.599Z,1002.61
2017-12-13T04:26:52.609Z,1002.61
2017-12-13T04:27:52.620Z,1002.59
2017-12-13T04:28:52.632Z,1002.58
2017-12-13T04:29:52.642Z,1002.55
2017-12-13T04:30:52.652Z,1002.59
2017-12-13T04:31:52.665Z,1002.52
2017-12-13T04:32:52.675Z,1002.55
2017-12-13T04:33:52.716Z,1002.6
2017-12-13T04:34:52.697Z,1002.63
2017-12-13T04:35:52.706Z,1002.6
2017-12-13T04:36:52.735Z,1002.61
2017-12-13T04:37:52.727Z,1002.57
2017-12-13T04:38:52.737Z,1002.56
2017-12-13T04:39:52.748Z,1002.53
2017-12-13T04:40:52.759Z,1002.58
2017-12-13T04:41:52.770Z,1002.58
2017-12-13T04:42:52.781Z,1002.55
2017-12-13T04:43:52.790Z,1002.57
2017-12-13T04:44:52.800Z,1002.55
2017-12-13T04:45:52.812Z,1002.54
2017-12-13T04:46:52.828Z,1002.55
2017-12-13T04:47:52.833Z,1002.55
2017-12-13T04:48:52.844Z,1002.52
2017-12-13T04:49:52.853Z,1002.54
2017-12-13T04:50:52.864Z,1002.49
2017-12-13T04:51:52.877Z,1002.45
2017-12-13T04:52:52.890Z,1002.46
2017-12-13T04:53:52.897Z,1002.44
2017-12-13T04:54:52.907Z,1002.46
2017-12-13T04:55:52.919Z,1002.42
2017-12-13T04:56:52.930Z,1002.43
2017-12-13T04:57:52.940Z,1002.44
2017-12-13T04:58:52.950Z,1002.45
2017-12-13T04:59:53.011Z,1002.44
2017-12-13T05:00:52.973Z,1002.44
2017-12-13T05:01:52.982Z,1002.43
2017-12-13T05:02:52.991Z,1002.41
2017-12-13T05:03:53.002Z,1002.4
2017-12-13T05:04:53.012Z,1002.38
2017-12-13T05:05:53.022Z,1002.39
2017-12-13T05:06:53.033Z,1002.38
2017-12-13T05:07:53.046Z,1002.33
2017-12-13T05:08:53.055Z,1002.36
2017-12-13T05:09:53.065Z,1002.35
2017-12-13T05:10:53.076Z,1002.32
2017-12-13T05:11:53.085Z,1002.29
2017-12-13T05:12:53.098Z,1002.28
2017-12-13T05:13:53.109Z,1002.27
2017-12-13T05:14:53.273Z,1002.26
2017-12-13T05:15:53.128Z,1002.25
2017-12-13T05:16:53.140Z,1002.3
2017-12-13T05:17:53.148Z,1002.27
2017-12-13T05:18:53.207Z,1002.28
2017-12-13T05:19:53.169Z,1002.26
2017-12-13T05:20:53.179Z,1002.22
2017-12-13T05:21:53.191Z,1002.21
2017-12-13T05:22:53.204Z,1002.21
2017-12-13T05:23:53.212Z,1002.18
2017-12-13T05:24:53.222Z,1002.23
2017-12-13T05:25:53.234Z,1002.2
2017-12-13T05:26:53.268Z,1002.18
2017-12-13T05:27:53.253Z,1002.18
2017-12-13T05:28:53.265Z,1002.15
2017-12-13T05:29:53.274Z,1002.16
2017-12-13T05:30:53.336Z,1002.19
2017-12-13T05:31:53.295Z,1002.2
2017-12-13T05:32:53.305Z,1002.2
2017-12-13T05:33:53.316Z,1002.26
2017-12-13T05:34:53.326Z,1002.23
2017-12-13T05:35:53.389Z,1002.23
2017-12-13T05:36:53.347Z,1002.28
2017-12-13T05:37:53.359Z,1002.26
2017-12-13T05:38:53.372Z,1002.3
2017-12-13T05:39:53.380Z,1002.33
2017-12-13T05:40:53.389Z,1002.31
2017-12-13T05:41:53.399Z,1002.28
2017-12-13T05:42:53.410Z,1002.27
2017-12-13T05:43:53.420Z,1002.27
2017-12-13T05:44:53.430Z,1002.26
2017-12-13T05:45:53.443Z,1002.25
2017-12-13T05:46:53.450Z,1002.24
2017-12-13T05:47:53.462Z,1002.23
2017-12-13T05:48:53.472Z,1002.22
2017-12-13T05:49:53.482Z,1002.27
2017-12-13T05:50:53.501Z,1002.2
2017-12-13T05:51:53.506Z,1002.17
2017-12-13T05:52:53.514Z,1002.17
2017-12-13T05:53:53.538Z,1002.18
2017-12-13T05:54:53.534Z,1002.19
2017-12-13T05:55:53.546Z,1002.18
2017-12-13T05:56:53.555Z,1002.19
2017-12-13T05:57:53.566Z,1002.17
2017-12-13T05:58:53.575Z,1002.19
2017-12-13T05:59:53.586Z,1002.11
2017-12-13T06:00:53.596Z,1002.14
2017-12-13T06:01:53.605Z,1002.16
2017-12-13T06:02:53.617Z,1002.19
2017-12-13T06:03:53.628Z,1002.16
2017-12-13T06:04:53.640Z,1002.2
2017-12-13T06:05:53.649Z,1002.22
2017-12-13T06:06:53.659Z,1002.14
2017-12-13T06:07:53.669Z,1002.11
2017-12-13T06:08:53.686Z,1002.12
2017-12-13T06:09:53.693Z,1002.11
2017-12-13T06:10:53.700Z,1002.08
2017-12-13T06:11:53.713Z,1002.05
2017-12-13T06:12:53.722Z,1002.06
2017-12-13T06:13:53.731Z,1002.04
2017-12-13T06:14:53.744Z,1002.04
2017-12-13T06:15:53.753Z,1002.08
2017-12-13T06:16:53.767Z,1002.04
2017-12-13T06:17:53.774Z,1002.04
2017-12-13T06:18:53.783Z,1002.05
2017-12-13T06:19:53.800Z,1002.09
2017-12-13T06:20:53.807Z,1002.06
2017-12-13T06:21:53.814Z,1002.04
2017-12-13T06:22:53.825Z,1002.04
2017-12-13T06:23:53.835Z,1002.02
2017-12-13T06:24:53.846Z,1001.96
2017-12-13T06:25:53.856Z,1001.97
2017-12-13T06:26:53.873Z,1001.98
2017-12-13T06:27:53.875Z,1001.93
2017-12-13T06:28:53.886Z,1001.93
2017-12-13T06:29:53.898Z,1001.94
2017-12-13T06:30:53.909Z,1001.92
2017-12-13T06:31:53.917Z,1001.87
2017-12-13T06:32:53.933Z,1001.88
2017-12-13T06:33:53.958Z,1001.86
2017-12-13T06:34:53.948Z,1001.85
2017-12-13T06:35:53.959Z,1001.82
2017-12-13T06:36:53.971Z,1001.84
2017-12-13T06:37:53.980Z,1001.88
2017-12-13T06:38:53.990Z,1001.89
2017-12-13T06:39:54.000Z,1001.8
2017-12-13T06:40:54.016Z,1001.81
2017-12-13T06:41:54.022Z,1001.82
2017-12-13T06:42:54.036Z,1001.76
2017-12-13T06:43:54.042Z,1001.84
2017-12-13T06:44:54.050Z,1001.82
2017-12-13T06:45:54.062Z,1001.81
2017-12-13T06:46:54.072Z,1001.81
2017-12-13T06:47:54.083Z,1001.79
2017-12-13T06:48:54.093Z,1001.81
2017-12-13T06:49:54.103Z,1001.76
2017-12-13T06:50:54.113Z,1001.72
2017-12-13T06:51:54.174Z,1001.76
2017-12-13T06:52:54.134Z,1001.75
2017-12-13T06:53:54.144Z,1001.79
2017-12-13T06:54:54.154Z,1001.72
2017-12-13T06:55:54.171Z,1001.71
2017-12-13T06:56:54.175Z,1001.72
2017-12-13T06:57:54.186Z,1001.69
2017-12-13T06:58:54.195Z,1001.65
2017-12-13T06:59:54.206Z,1001.71
2017-12-13T07:00:54.216Z,1001.67
2017-12-13T07:01:54.226Z,1001.65
2017-12-13T07:02:54.236Z,1001.65
2017-12-13T07:03:54.247Z,1001.62
2017-12-13T07:04:54.257Z,1001.64
2017-12-13T07:05:54.268Z,1001.65
2017-12-13T07:06:54.328Z,1001.63
2017-12-13T07:07:54.290Z,1001.62
2017-12-13T07:08:54.298Z,1001.65
2017-12-13T07:09:54.310Z,1001.67
2017-12-13T07:10:54.320Z,1001.59
2017-12-13T07:11:54.329Z,1001.61
2017-12-13T07:12:54.339Z,1001.63
2017-12-13T07:13:54.350Z,1001.65
2017-12-13T07:14:54.359Z,1001.58
2017-12-13T07:15:54.370Z,1001.6
2017-12-13T07:16:54.431Z,1001.62
2017-12-13T07:17:54.390Z,1001.62
2017-12-13T07:18:54.401Z,1001.62
2017-12-13T07:19:54.410Z,1001.62
2017-12-13T07:20:54.422Z,1001.61
2017-12-13T07:21:54.432Z,1001.66
2017-12-13T07:22:54.443Z,1001.62
2017-12-13T07:23:54.454Z,1001.65
2017-12-13T07:24:54.468Z,1001.62
2017-12-13T07:25:54.473Z,1001.62
2017-12-13T07:26:54.484Z,1001.6
2017-12-13T07:27:54.492Z,1001.63
2017-12-13T07:28:54.503Z,1001.56
2017-12-13T07:29:54.515Z,1001.63
2017-12-13T07:30:54.524Z,1001.59
2017-12-13T07:31:54.534Z,1001.6
2017-12-13T07:32:54.545Z,1001.6
2017-12-13T07:33:54.555Z,1001.56
2017-12-13T07:34:54.564Z,1001.56
2017-12-13T07:35:54.576Z,1001.56
2017-12-13T07:36:54.637Z,1001.52
2017-12-13T07:37:54.597Z,1001.5
2017-12-13T07:38:54.607Z,1001.5
2017-12-13T07:39:54.623Z,1001.47
2017-12-13T07:40:54.627Z,1001.46
2017-12-13T07:41:54.638Z,1001.43
2017-12-13T07:42:54.647Z,1001.42
2017-12-13T07:43:54.666Z,1001.37
2017-12-13T07:44:54.669Z,1001.37
2017-12-13T07:45:54.678Z,1001.36
2017-12-13T07:46:54.688Z,1001.28
2017-12-13T07:47:54.699Z,1001.33
2017-12-13T07:48:54.711Z,1001.31
2017-12-13T07:49:54.720Z,1001.31
2017-12-13T07:50:54.731Z,1001.28
2017-12-13T07:51:54.741Z,1001.27
2017-12-13T07:52:54.752Z,1001.26
2017-12-13T07:53:54.762Z,1001.2
2017-12-13T07:54:54.772Z,1001.18
2017-12-13T07:55:54.782Z,1001.19
2017-12-13T07:56:54.792Z,1001.19
2017-12-13T07:57:54.807Z,1001.15
2017-12-13T07:58:54.814Z,1001.16
2017-12-13T07:59:54.821Z,1001.14
2017-12-13T08:00:54.833Z,1001.12
2017-12-13T08:01:54.850Z,1001.08
2017-12-13T08:02:54.854Z,1001.1
2017-12-13T08:03:54.863Z,1001.04
2017-12-13T08:04:54.915Z,1001.13
2017-12-13T08:05:54.887Z,1001.12
2017-12-13T08:06:54.895Z,1001.07
2017-12-13T08:07:54.906Z,1001.06
2017-12-13T08:08:54.915Z,1001.05
2017-12-13T08:09:54.928Z,1001.12
2017-12-13T08:10:54.937Z,1001.08
2017-12-13T08:11:54.947Z,1001.07
2017-12-13T08:12:54.958Z,1001.09
2017-12-13T08:13:54.969Z,1001.07
2017-12-13T08:14:54.981Z,1001.06
2017-12-13T08:15:54.989Z,1001.03
2017-12-13T08:16:54.999Z,1001.08
2017-12-13T08:17:55.009Z,1001.05
2017-12-13T08:18:55.021Z,1001.11
2017-12-13T08:19:55.031Z,1001.06
2017-12-13T08:20:55.042Z,1001.08
2017-12-13T08:21:55.052Z,1001.06
2017-12-13T08:22:55.062Z,1001.05
2017-12-13T08:23:55.072Z,1001
2017-12-13T08:24:55.083Z,1000.99
2017-12-13T08:25:55.094Z,1000.99
2017-12-13T08:26:55.105Z,1001.01
2017-12-13T08:27:55.116Z,1000.98
2017-12-13T08:28:55.126Z,1000.99
2017-12-13T08:29:55.136Z,1000.95
2017-12-13T08:30:55.147Z,1001.03
2017-12-13T08:31:55.159Z,1001.01
2017-12-13T08:32:55.167Z,1000.93
2017-12-13T08:33:55.178Z,1000.93
2017-12-13T08:34:55.200Z,1000.93
2017-12-13T08:35:55.200Z,1000.94
2017-12-13T08:36:55.211Z,1000.93
2017-12-13T08:37:55.221Z,1000.93
2017-12-13T08:38:55.231Z,1000.99
2017-12-13T08:39:55.243Z,1000.96
2017-12-13T08:40:55.253Z,1000.93
2017-12-13T08:41:55.263Z,1000.9
2017-12-13T08:42:55.276Z,1000.84
2017-12-13T08:43:55.285Z,1000.81
2017-12-13T08:44:55.295Z,1000.78
2017-12-13T08:45:55.307Z,1000.74
2017-12-13T08:46:55.319Z,1000.76
2017-12-13T08:47:55.354Z,1000.68
2017-12-13T08:48:55.340Z,1000.67
2017-12-13T08:49:55.351Z,1000.66
2017-12-13T08:50:55.361Z,1000.67
2017-12-13T08:51:55.371Z,1000.57
2017-12-13T08:52:55.382Z,1000.58
2017-12-13T08:53:55.394Z,1000.5
2017-12-13T08:54:55.403Z,1000.5
2017-12-13T08:55:55.413Z,1000.51
2017-12-13T08:56:55.423Z,1000.53
2017-12-13T08:57:55.490Z,1000.53
2017-12-13T08:58:55.445Z,1000.49
2017-12-13T08:59:55.464Z,1000.45
2017-12-13T09:00:55.469Z,1000.48
2017-12-13T09:01:55.478Z,1000.46
2017-12-13T09:02:55.488Z,1000.35
2017-12-13T09:03:55.504Z,1000.37
2017-12-13T09:04:55.512Z,1000.3
2017-12-13T09:05:55.521Z,1000.27
2017-12-13T09:06:55.531Z,1000.3
2017-12-13T09:07:55.543Z,1000.26
2017-12-13T09:08:55.553Z,1000.22
2017-12-13T09:09:55.565Z,1000.23
2017-12-13T09:10:55.576Z,1000.28
2017-12-13T09:11:55.586Z,1000.24
2017-12-13T09:12:55.598Z,1000.24
2017-12-13T09:13:55.608Z,1000.23
2017-12-13T09:14:55.620Z,1000.24
2017-12-13T09:15:55.632Z,1000.18
2017-12-13T09:16:55.641Z,1000.16
2017-12-13T09:17:55.651Z,1000.14
2017-12-13T09:18:55.667Z,1000.1
2017-12-13T09:19:55.675Z,1000.1
2017-12-13T09:20:55.684Z,1000.05
2017-12-13T09:21:55.699Z,1000.04
2017-12-13T09:22:55.707Z,1000.01
2017-12-13T09:23:55.731Z,1000.05
2017-12-13T09:24:55.741Z,1000.05
2017-12-13T09:25:55.741Z,1000.03
2017-12-13T09:26:55.752Z,1000.01
2017-12-13T09:27:55.761Z,999.98
2017-12-13T09:28:55.772Z,999.96
2017-12-13T09:29:55.783Z,999.98
2017-12-13T09:30:55.793Z,999.95
2017-12-13T09:31:55.804Z,999.92
2017-12-13T09:32:55.822Z,999.93
2017-12-13T09:33:55.827Z,999.91
2017-12-13T09:34:55.837Z,999.88
2017-12-13T09:35:55.849Z,999.89
2017-12-13T09:36:55.860Z,999.88
2017-12-13T09:37:55.869Z,999.87
2017-12-13T09:38:55.881Z,999.8
2017-12-13T09:39:55.891Z,999.83
2017-12-13T09:40:55.904Z,999.85
2017-12-13T09:41:55.974Z,999.89
2017-12-13T09:42:55.926Z,999.83
2017-12-13T09:43:55.935Z,999.84
2017-12-13T09:44:55.945Z,999.82
2017-12-13T09:45:55.957Z,999.78
2017-12-13T09:46:55.968Z,999.74
2017-12-13T09:47:55.978Z,999.77
2017-12-13T09:48:55.990Z,999.77
2017-12-13T09:49:56.001Z,999.67
2017-12-13T09:50:56.013Z,999.73
2017-12-13T09:51:56.026Z,999.64
2017-12-13T09:52:56.034Z,999.7
2017-12-13T09:53:56.045Z,999.65
2017-12-13T09:54:56.056Z,999.67
2017-12-13T09:55:56.069Z,999.67
2017-12-13T09:56:56.077Z,999.59
2017-12-13T09:57:56.089Z,999.66
2017-12-13T09:58:56.098Z,999.59
2017-12-13T09:59:56.109Z,999.58
2017-12-13T10:00:56.119Z,999.54
2017-12-13T10:01:56.131Z,999.52
2017-12-13T10:02:56.143Z,999.49
2017-12-13T10:03:56.153Z,999.46
2017-12-13T10:04:56.164Z,999.47
2017-12-13T10:05:56.179Z,999.43
2017-12-13T10:06:56.190Z,999.44
2017-12-13T10:07:56.196Z,999.43
2017-12-13T10:08:56.211Z,999.39
2017-12-13T10:09:56.219Z,999.42
2017-12-13T10:10:56.230Z,999.34
2017-12-13T10:11:56.240Z,999.31
2017-12-13T10:12:56.253Z,999.29
2017-12-13T10:13:56.262Z,999.25
2017-12-13T10:14:56.275Z,999.2
2017-12-13T10:15:56.283Z,999.19
2017-12-13T10:16:56.295Z,999.15
2017-12-13T10:17:56.306Z,999.14
2017-12-13T10:18:56.316Z,999.11
2017-12-13T10:19:56.326Z,999.02
2017-12-13T10:20:56.339Z,999.03
2017-12-13T10:21:56.351Z,998.98
2017-12-13T10:22:56.360Z,998.87
2017-12-13T10:23:56.371Z,998.8
2017-12-13T10:24:56.383Z,998.82
2017-12-13T10:25:56.393Z,998.78
2017-12-13T10:26:56.404Z,998.66
2017-12-13T10:27:56.415Z,998.7
2017-12-13T10:28:56.474Z,998.66
2017-12-13T10:29:56.436Z,998.55
2017-12-13T10:30:56.448Z,998.57
2017-12-13T10:31:56.461Z,998.51
2017-12-13T10:32:56.470Z,998.51
2017-12-13T10:33:56.481Z,998.47
2017-12-13T10:34:56.491Z,998.42
2017-12-13T10:35:56.503Z,998.36
2017-12-13T10:36:56.516Z,998.36
2017-12-13T10:37:56.527Z,998.33
2017-12-13T10:38:56.535Z,998.24
2017-12-13T10:39:56.545Z,998.25
2017-12-13T10:40:56.557Z,998.22
2017-12-13T10:41:56.569Z,998.23
2017-12-13T10:42:56.580Z,998.15
2017-12-13T10:43:56.591Z,998.09
2017-12-13T10:44:56.602Z,998.03
2017-12-13T10:45:56.613Z,997.99
2017-12-13T10:46:56.625Z,997.99
2017-12-13T10:47:56.638Z,997.92
2017-12-13T10:48:56.646Z,997.92
2017-12-13T10:49:56.657Z,997.85
2017-12-13T10:50:56.670Z,997.91
2017-12-13T10:51:56.679Z,997.82
2017-12-13T10:52:56.691Z,997.78
2017-12-13T10:53:56.700Z,997.86
2017-12-13T10:54:56.713Z,997.87
2017-12-13T10:55:56.726Z,997.76
2017-12-13T10:56:56.734Z,997.76
2017-12-13T10:57:56.747Z,997.67
2017-12-13T10:58:56.760Z,997.74
2017-12-13T10:59:56.768Z,997.66
2017-12-13T11:00:56.779Z,997.65
2017-12-13T11:01:56.791Z,997.59
2017-12-13T11:02:56.801Z,997.53
2017-12-13T11:03:56.813Z,997.55
2017-12-13T11:04:56.830Z,997.54
2017-12-13T11:05:56.835Z,997.46
2017-12-13T11:06:56.847Z,997.41
2017-12-13T11:07:56.862Z,997.34
2017-12-13T11:08:56.870Z,997.35
2017-12-13T11:09:56.879Z,997.25
2017-12-13T11:10:56.891Z,997.32
2017-12-13T11:11:56.904Z,997.35
2017-12-13T11:12:56.916Z,997.28
2017-12-13T11:13:56.925Z,997.29
2017-12-13T11:14:56.939Z,997.26
2017-12-13T11:15:56.951Z,997.23
2017-12-13T11:16:56.960Z,997.23
2017-12-13T11:17:56.975Z,997.17
2017-12-13T11:18:56.983Z,997.22
2017-12-13T11:19:56.993Z,997.17
2017-12-13T11:20:57.007Z,997.13
2017-12-13T11:21:57.015Z,997.1
2017-12-13T11:22:57.026Z,997.16
2017-12-13T11:23:57.090Z,997.11
2017-12-13T11:24:57.049Z,997.11
2017-12-13T11:25:57.063Z,997.03
2017-12-13T11:26:57.072Z,997.05
2017-12-13T11:27:57.084Z,997.03
2017-12-13T11:28:57.095Z,996.99
2017-12-13T11:29:57.108Z,996.87
2017-12-13T11:30:57.120Z,996.87
2017-12-13T11:31:57.129Z,996.85
2017-12-13T11:32:57.144Z,996.85
2017-12-13T11:33:57.154Z,996.8
2017-12-13T11:34:57.164Z,996.84
2017-12-13T11:35:57.180Z,996.86
2017-12-13T11:36:57.187Z,996.84
2017-12-13T11:37:57.203Z,996.82
2017-12-13T11:38:57.260Z,996.72
2017-12-13T11:39:57.221Z,996.84
2017-12-13T11:40:57.236Z,996.77
2017-12-13T11:41:57.246Z,996.71
2017-12-13T11:42:57.257Z,996.62
2017-12-13T11:43:57.269Z,996.63
2017-12-13T11:44:57.280Z,996.62
2017-12-13T11:45:57.295Z,996.62
2017-12-13T11:46:57.302Z,996.58
2017-12-13T11:47:57.318Z,996.59
2017-12-13T11:48:57.327Z,996.54
2017-12-13T11:49:57.340Z,996.46
2017-12-13T11:50:57.352Z,996.44
2017-12-13T11:51:57.362Z,996.46
2017-12-13T11:52:57.373Z,996.42
2017-12-13T11:53:57.385Z,996.43
2017-12-13T11:54:57.396Z,996.39
2017-12-13T11:55:57.409Z,996.39
2017-12-13T11:56:57.420Z,996.38
2017-12-13T11:57:57.434Z,996.36
2017-12-13T11:58:57.445Z,996.36
2017-12-13T11:59:57.456Z,996.3
2017-12-13T12:00:57.466Z,996.32
2017-12-13T12:01:57.480Z,996.3
2017-12-13T12:02:57.489Z,996.27
2017-12-13T12:03:57.502Z,996.24
2017-12-13T12:04:57.514Z,996.25
2017-12-13T12:05:57.526Z,996.27
2017-12-13T12:06:57.538Z,996.23
2017-12-13T12:07:57.551Z,996.2
2017-12-13T12:08:57.611Z,996.19
2017-12-13T12:09:57.572Z,996.13
2017-12-13T12:10:57.582Z,996.12
2017-12-13T12:11:57.596Z,996.12
2017-12-13T12:12:57.608Z,996.11
2017-12-13T12:13:57.620Z,996.07